createdAt,value
2022-11-16T00:00:05.328Z,98246.81
2022-11-16T00:02:33.109Z,98240.38
2022-11-16T00:04:59.881Z,98237.81
2022-11-16T00:07:26.671Z,98237.81
2022-11-16T00:09:53.481Z,98232.91
2022-11-16T00:12:20.194Z,98227.97
2022-11-16T00:14:46.960Z,98224.97
2022-11-16T00:17:13.720Z,98222.28
2022-11-16T00:19:40.450Z,98215.13
2022-11-16T00:22:07.220Z,98222.38
2022-11-16T00:24:34.390Z,98225.13
2022-11-16T00:27:01.139Z,98217.88
2022-11-16T00:29:27.897Z,98223.63
2022-11-16T00:31:55.448Z,98222.16
2022-11-16T00:34:23.297Z,98216.47
2022-11-16T00:36:50.460Z,98199.38
2022-11-16T00:39:17.980Z,98200.16
2022-11-16T00:41:44.913Z,98192.56
2022-11-16T00:44:12.103Z,98191.03
2022-11-16T00:46:39.080Z,98188.81
2022-11-16T00:49:05.884Z,98184.22
2022-11-16T00:51:33.939Z,98188.47
2022-11-16T00:54:01.315Z,98180.91
2022-11-16T00:56:28.257Z,98181.31
2022-11-16T00:58:55.002Z,98174.47
2022-11-16T01:01:21.912Z,98180.97
2022-11-16T01:03:48.756Z,98176.81
2022-11-16T01:06:16.008Z,98167.31
2022-11-16T01:08:43.929Z,98161.66
2022-11-16T01:11:32.566Z,98164.31
2022-11-16T01:14:04.837Z,98154.81
2022-11-16T01:16:31.698Z,98150.66
2022-11-16T01:18:58.719Z,98151.81
2022-11-16T01:21:25.515Z,98153.00
2022-11-16T01:23:53.011Z,98149.97
2022-11-16T01:26:19.932Z,98149.22
2022-11-16T01:28:46.711Z,98147.75
2022-11-16T01:31:13.749Z,98137.50
2022-11-16T01:33:40.524Z,98140.16
2022-11-16T01:36:14.399Z,98137.50
2022-11-16T01:38:42.699Z,98133.31
2022-11-16T01:41:13.359Z,98124.56
2022-11-16T01:43:55.308Z,98120.41
2022-11-16T01:46:22.630Z,98120.84
2022-11-16T01:48:53.053Z,98118.56
2022-11-16T01:51:20.093Z,98107.91
2022-11-16T01:53:46.866Z,98104.53
2022-11-16T01:56:13.836Z,98103.34
2022-11-16T01:58:41.139Z,98098.00
2022-11-16T02:01:08.236Z,98098.84
2022-11-16T02:03:37.694Z,98102.66
2022-11-16T02:06:16.145Z,98091.25
2022-11-16T02:09:30.682Z,98092.44
2022-11-16T02:12:06.514Z,98082.94
2022-11-16T02:15:13.358Z,98080.28
2022-11-16T02:17:43.602Z,98088.66
2022-11-16T02:20:39.179Z,98080.66
2022-11-16T02:23:30.871Z,98073.09
2022-11-16T02:25:57.581Z,98072.34
2022-11-16T02:28:38.766Z,98067.75
2022-11-16T02:31:06.474Z,98065.50
2022-11-16T02:33:40.837Z,98065.50
2022-11-16T02:36:10.357Z,98059.84
2022-11-16T02:38:39.502Z,98052.59
2022-11-16T02:41:10.889Z,98057.19
2022-11-16T02:44:00.793Z,98046.94
2022-11-16T02:46:30.813Z,98046.19
2022-11-16T02:48:59.127Z,98048.84
2022-11-16T02:51:27.285Z,98045.13
2022-11-16T02:54:08.872Z,98039.03
2022-11-16T02:56:45.597Z,98043.19
2022-11-16T02:59:17.379Z,98043.19
2022-11-16T03:01:48.469Z,98048.19
2022-11-16T03:04:20.656Z,98033.69
2022-11-16T03:06:48.724Z,98026.13
2022-11-16T03:09:19.698Z,98026.13
2022-11-16T03:12:02.930Z,98027.31
2022-11-16T03:14:41.559Z,98030.69
2022-11-16T03:17:13.744Z,98025.38
2022-11-16T03:19:55.760Z,98018.56
2022-11-16T03:22:34.166Z,98023.88
2022-11-16T03:25:01.131Z,98018.22
2022-11-16T03:27:37.722Z,98022.38
2022-11-16T03:30:09.465Z,98016.31
2022-11-16T03:32:39.378Z,98010.22
2022-11-16T03:35:27.206Z,98004.91
2022-11-16T03:37:56.536Z,98004.91
2022-11-16T03:40:24.797Z,98003.38
2022-11-16T03:42:52.285Z,97991.25
2022-11-16T03:45:19.475Z,97993.91
2022-11-16T03:47:46.377Z,97992.00
2022-11-16T03:50:13.316Z,97985.59
2022-11-16T03:52:40.109Z,97991.25
2022-11-16T03:55:07.162Z,97982.16
2022-11-16T03:57:33.971Z,97979.09
2022-11-16T04:00:00.788Z,97984.41
2022-11-16T04:02:27.559Z,97982.91
2022-11-16T04:05:12.970Z,97979.09
2022-11-16T04:07:58.539Z,97979.84
2022-11-16T04:10:44.323Z,97977.59
2022-11-16T04:13:31.743Z,97965.44
2022-11-16T04:16:16.889Z,97960.09
2022-11-16T04:19:02.436Z,97960.84
2022-11-16T04:21:51.356Z,97959.38
2022-11-16T04:24:23.656Z,97952.09
2022-11-16T04:27:12.497Z,97954.47
2022-11-16T04:29:39.548Z,97949.13
2022-11-16T04:32:24.798Z,97951.78
2022-11-16T04:35:10.140Z,97950.63
2022-11-16T04:37:48.976Z,97941.13
2022-11-16T04:40:20.500Z,97945.72
2022-11-16T04:42:52.004Z,97943.03
2022-11-16T04:45:37.788Z,97943.47
2022-11-16T04:48:05.158Z,97948.81
2022-11-16T04:50:32.161Z,97932.06
2022-11-16T04:52:59.265Z,97947.31
2022-11-16T04:55:26.706Z,97938.16
2022-11-16T04:57:53.711Z,97936.66
2022-11-16T05:00:20.760Z,97932.81
2022-11-16T05:02:47.456Z,97939.31
2022-11-16T05:05:14.353Z,97939.31
2022-11-16T05:07:41.404Z,97940.47
2022-11-16T05:10:08.542Z,97939.72
2022-11-16T05:12:35.580Z,97937.06
2022-11-16T05:15:02.477Z,97934.09
2022-11-16T05:17:29.345Z,97929.06
2022-11-16T05:20:14.811Z,97930.66
2022-11-16T05:22:41.612Z,97929.50
2022-11-16T05:25:09.044Z,97929.50
2022-11-16T05:27:36.416Z,97926.09
2022-11-16T05:30:04.778Z,97916.19
2022-11-16T05:32:31.847Z,97911.28
2022-11-16T05:34:58.579Z,97910.84
2022-11-16T05:37:26.805Z,97900.28
2022-11-16T05:39:54.966Z,97904.03
2022-11-16T05:42:21.763Z,97896.44
2022-11-16T05:44:48.800Z,97896.03
2022-11-16T05:47:15.586Z,97894.53
2022-11-16T05:49:42.426Z,97893.38
2022-11-16T05:52:09.190Z,97890.38
2022-11-16T05:54:35.980Z,97892.28
2022-11-16T05:57:02.712Z,97884.72
2022-11-16T05:59:30.140Z,97885.13
2022-11-16T06:01:57.840Z,97888.25
2022-11-16T06:04:25.101Z,97885.56
2022-11-16T06:06:52.004Z,97880.66
2022-11-16T06:09:18.947Z,97880.66
2022-11-16T06:11:45.695Z,97878.41
2022-11-16T06:14:12.559Z,97879.59
2022-11-16T06:16:39.343Z,97876.19
2022-11-16T06:19:06.109Z,97878.84
2022-11-16T06:21:33.146Z,97875.06
2022-11-16T06:23:59.960Z,97883.06
2022-11-16T06:26:26.711Z,97884.56
2022-11-16T06:28:54.974Z,97885.31
2022-11-16T06:31:21.959Z,97884.16
2022-11-16T06:33:48.679Z,97889.06
2022-11-16T06:36:15.457Z,97891.31
2022-11-16T06:38:42.197Z,97882.16
2022-11-16T06:41:09.031Z,97885.88
2022-11-16T06:43:36.080Z,97877.06
2022-11-16T06:46:02.897Z,97877.09
2022-11-16T06:48:30.677Z,97881.41
2022-11-16T06:50:57.577Z,97875.44
2022-11-16T06:53:28.934Z,97872.66
2022-11-16T06:56:00.458Z,97867.94
2022-11-16T06:58:29.227Z,97864.00
2022-11-16T07:00:56.070Z,97864.25
2022-11-16T07:03:22.792Z,97854.09
2022-11-16T07:05:50.049Z,97865.31
2022-11-16T07:08:16.831Z,97862.63
2022-11-16T07:10:43.503Z,97864.56
2022-11-16T07:13:10.318Z,97861.88
2022-11-16T07:15:37.081Z,97857.00
2022-11-16T07:18:05.491Z,97852.41
2022-11-16T07:20:32.765Z,97849.41
2022-11-16T07:23:01.113Z,97857.84
2022-11-16T07:25:27.943Z,97855.59
2022-11-16T07:27:54.701Z,97859.44
2022-11-16T07:30:21.447Z,97853.34
2022-11-16T08:46:36.810Z,98505.91
2022-11-16T08:49:03.778Z,98506.00
2022-11-16T08:51:30.494Z,98510.28
2022-11-16T08:53:58.181Z,98501.28
2022-11-16T08:56:27.525Z,98511.44
2022-11-16T08:58:58.480Z,98509.59
2022-11-16T09:01:27.376Z,98504.88
2022-11-16T09:03:54.369Z,98494.50
2022-11-16T09:06:22.275Z,98497.16
2022-11-16T09:08:49.503Z,98494.47
2022-11-16T09:11:20.240Z,98493.97
2022-11-16T09:13:48.591Z,98487.13
2022-11-16T09:16:16.728Z,98490.41
2022-11-16T09:18:45.622Z,98480.25
2022-11-16T09:21:12.315Z,98484.88
2022-11-16T09:23:39.045Z,98488.41
2022-11-16T09:26:07.799Z,98491.94
2022-11-16T09:28:34.852Z,98494.75
2022-11-16T09:31:04.269Z,98496.13
2022-11-16T09:33:31.502Z,98484.66
2022-11-16T09:36:06.785Z,98488.38
2022-11-16T09:39:13.904Z,98483.97
2022-11-16T09:41:39.431Z,98479.53
2022-11-16T09:44:09.516Z,98475.00
2022-11-16T09:46:40.063Z,98468.34
2022-11-16T09:49:23.265Z,98463.09
2022-11-16T09:51:53.563Z,98472.03
2022-11-16T09:54:24.929Z,98472.91
2022-11-16T09:56:54.511Z,98467.66
2022-11-16T09:59:32.219Z,98459.53
2022-11-16T10:02:26.542Z,98454.66
2022-11-16T10:05:08.376Z,98448.50
2022-11-16T10:07:46.703Z,98445.38
2022-11-16T10:10:37.761Z,98444.09
2022-11-16T10:13:38.441Z,98445.81
2022-11-16T10:16:19.828Z,98433.53
2022-11-16T10:18:53.742Z,98428.72
2022-11-16T10:21:30.952Z,98433.28
2022-11-16T10:24:22.385Z,98421.00
2022-11-16T10:27:27.760Z,98420.91
2022-11-16T10:29:54.420Z,98419.25
2022-11-16T10:32:28.901Z,98409.06
2022-11-16T10:35:11.097Z,98411.91
2022-11-16T10:37:50.159Z,98414.47
2022-11-16T10:40:23.675Z,98412.50
2022-11-16T10:43:01.085Z,98409.28
2022-11-16T10:45:58.065Z,98391.72
2022-11-16T10:48:30.976Z,98392.75
2022-11-16T10:50:57.823Z,98393.91
2022-11-16T10:53:32.036Z,98382.66
2022-11-16T10:56:21.620Z,98388.72
2022-11-16T10:59:01.304Z,98390.69
2022-11-16T11:01:49.519Z,98387.41
2022-11-16T11:04:28.508Z,98378.16
2022-11-16T11:07:00.853Z,98373.63
2022-11-16T11:09:35.953Z,98370.75
2022-11-16T11:12:35.586Z,98369.66
2022-11-16T11:15:11.368Z,98365.75
2022-11-16T11:17:40.823Z,98362.13
2022-11-16T11:20:27.932Z,98350.91
2022-11-16T11:23:00.182Z,98344.09
2022-11-16T11:25:36.948Z,98335.78
2022-11-16T11:28:20.301Z,98333.72
2022-11-16T11:31:07.457Z,98333.72
2022-11-16T11:33:37.533Z,98331.09
2022-11-16T11:36:04.575Z,98328.47
2022-11-16T11:38:32.272Z,98326.94
2022-11-16T11:41:05.180Z,98327.31
2022-11-16T11:43:34.303Z,98315.25
2022-11-16T11:46:09.781Z,98313.31
2022-11-16T11:49:01.501Z,98318.53
2022-11-16T11:51:33.906Z,98312.16
2022-11-16T11:54:02.601Z,98319.63
2022-11-16T11:56:31.902Z,98317.41
2022-11-16T11:58:58.902Z,98315.78
2022-11-16T12:01:44.371Z,98324.88
2022-11-16T12:04:25.867Z,98322.72
2022-11-16T12:06:59.686Z,98316.44
2022-11-16T12:09:31.272Z,98316.81
2022-11-16T12:12:16.625Z,98309.38
2022-11-16T12:15:21.557Z,98319.16
2022-11-16T12:18:06.147Z,98309.47
2022-11-16T12:20:35.257Z,98313.91
2022-11-16T12:23:20.136Z,98304.13
2022-11-16T12:25:57.119Z,98311.50
2022-11-16T12:28:51.059Z,98317.13
2022-11-16T12:31:42.587Z,98312.88
2022-11-16T12:34:38.322Z,98311.34
2022-11-16T12:37:10.986Z,98306.38
2022-11-16T12:40:22.834Z,98303.81
2022-11-16T12:43:08.843Z,98295.72
2022-11-16T12:45:57.767Z,98288.97
2022-11-16T12:48:38.882Z,98290.34
2022-11-16T12:51:14.415Z,98290.34
2022-11-16T12:54:11.679Z,98292.97
2022-11-16T12:56:53.009Z,98279.50
2022-11-16T12:59:32.234Z,98282.56
2022-11-16T13:02:17.439Z,98279.09
2022-11-16T13:04:51.033Z,98283.56
2022-11-16T13:07:23.390Z,98284.28
2022-11-16T13:09:56.241Z,98279.72
2022-11-16T13:12:23.619Z,98282.31
2022-11-16T13:14:53.146Z,98286.84
2022-11-16T13:17:26.883Z,98293.25
2022-11-16T13:20:21.641Z,98292.22
2022-11-16T13:22:58.202Z,98285.19
2022-11-16T13:25:31.642Z,98281.53
2022-11-16T13:28:20.098Z,98283.09
2022-11-16T13:31:09.130Z,98280.47
2022-11-16T13:33:42.313Z,98282.38
2022-11-16T13:36:54.687Z,98283.16
2022-11-16T13:39:50.327Z,98284.72
2022-11-16T13:42:17.754Z,98272.75
2022-11-16T13:44:50.324Z,98280.56
2022-11-16T13:47:24.836Z,98280.88
2022-11-16T13:50:00.414Z,98277.56
2022-11-16T13:53:36.383Z,98277.94
2022-11-16T13:55:36.178Z,98275.03
2022-11-16T13:58:05.364Z,98271.16
2022-11-16T14:00:37.044Z,98273.47
2022-11-16T14:03:15.543Z,98277.13
2022-11-16T14:05:42.360Z,98269.59
2022-11-16T14:08:24.330Z,98267.06
2022-11-16T14:10:50.983Z,98271.16
2022-11-16T14:13:36.609Z,98272.69
2022-11-16T14:16:21.682Z,98271.84
2022-11-16T14:18:50.538Z,98260.84
2022-11-16T14:21:35.185Z,98252.97
2022-11-16T14:24:07.701Z,98262.00
2022-11-16T14:26:43.492Z,98251.44
2022-11-16T14:29:15.894Z,98258.94
2022-11-16T14:31:57.040Z,98241.66
2022-11-16T14:34:30.355Z,98256.03
2022-11-16T14:36:58.788Z,98255.25
2022-11-16T14:39:32.629Z,98251.06
2022-11-16T14:42:03.484Z,98251.44
2022-11-16T14:44:41.451Z,98243.59
2022-11-16T14:47:36.031Z,98248.38
2022-11-16T14:50:18.550Z,98234.09
2022-11-16T14:52:51.947Z,98240.13
2022-11-16T14:55:24.600Z,98240.13
2022-11-16T14:58:26.777Z,98229.03
2022-11-16T15:00:55.515Z,98233.19
2022-11-16T15:03:26.043Z,98233.19
2022-11-16T15:06:10.345Z,98228.63
2022-11-16T15:08:42.482Z,98229.84
2022-11-16T15:11:20.179Z,98229.47
2022-11-16T15:13:47.391Z,98230.25
2022-11-16T15:16:19.503Z,98230.25
2022-11-16T15:18:59.532Z,98215.19
2022-11-16T15:21:28.708Z,98216.72
2022-11-16T15:26:44.123Z,98221.97
2022-11-16T15:29:18.968Z,98216.50
2022-11-16T15:31:45.930Z,98225.66
2022-11-16T15:34:13.739Z,98214.44
2022-11-16T15:36:41.318Z,98218.59
2022-11-16T15:39:20.004Z,98225.03
2022-11-16T15:41:47.144Z,98215.16
2022-11-16T15:44:16.911Z,98213.38
2022-11-16T15:46:46.050Z,98206.63
2022-11-16T15:49:37.520Z,98218.28
2022-11-16T15:52:05.587Z,98215.97
2022-11-16T15:54:52.435Z,98208.44
2022-11-16T15:57:20.757Z,98221.88
2022-11-16T15:59:49.719Z,98211.28
2022-11-16T16:02:18.895Z,98211.66
2022-11-16T16:04:45.613Z,98213.47
2022-11-16T16:07:13.638Z,98215.72
2022-11-16T16:09:41.028Z,98211.25
2022-11-16T16:12:24.709Z,98210.94
2022-11-16T16:14:52.224Z,98208.28
2022-11-16T16:17:26.749Z,98206.81
2022-11-16T16:19:55.911Z,98199.94
2022-11-16T16:22:34.296Z,98196.66
2022-11-16T16:25:01.802Z,98203.84
2022-11-16T16:27:30.271Z,98201.59
2022-11-16T16:30:03.842Z,98203.88
2022-11-16T16:32:34.237Z,98206.22
2022-11-16T16:35:03.165Z,98205.34
2022-11-16T16:37:31.560Z,98203.06
2022-11-16T16:39:58.987Z,98204.59
2022-11-16T16:42:26.163Z,98203.88
2022-11-16T16:44:53.029Z,98203.88
2022-11-16T16:47:22.520Z,98209.91
2022-11-16T16:49:49.329Z,98195.19
2022-11-16T16:52:16.545Z,98195.50
2022-11-16T16:54:43.448Z,98199.63
2022-11-16T16:57:17.151Z,98197.44
2022-11-16T16:59:48.599Z,98198.59
2022-11-16T17:02:16.147Z,98197.13
2022-11-16T17:04:44.048Z,98200.91
2022-11-16T17:07:10.746Z,98202.47
2022-11-16T17:09:37.437Z,98202.38
2022-11-16T17:12:04.426Z,98197.13
2022-11-16T17:14:31.088Z,98192.53
2022-11-16T17:16:57.826Z,98191.75
2022-11-16T17:19:24.575Z,98191.81
2022-11-16T17:21:52.117Z,98190.38
2022-11-16T17:24:18.815Z,98196.44
2022-11-16T17:26:48.342Z,98196.81
2022-11-16T17:29:15.303Z,98190.47
2022-11-16T17:31:44.074Z,98192.44
2022-11-16T17:34:13.812Z,98193.19
2022-11-16T17:36:41.927Z,98193.19
2022-11-16T17:39:08.848Z,98190.22
2022-11-16T17:41:35.524Z,98183.06
2022-11-16T17:44:02.419Z,98192.09
2022-11-16T17:46:29.279Z,98180.88
2022-11-16T17:48:56.208Z,98184.97
2022-11-16T17:51:24.829Z,98179.34
2022-11-16T17:53:51.897Z,98177.81
2022-11-16T17:56:21.136Z,98183.06
2022-11-16T17:58:49.999Z,98179.31
2022-11-16T18:01:16.742Z,98177.81
2022-11-16T18:03:43.460Z,98174.09
2022-11-16T18:06:15.833Z,98174.81
2022-11-16T18:08:45.953Z,98171.84
2022-11-16T18:11:13.866Z,98169.94
2022-11-16T18:13:40.614Z,98177.16
2022-11-16T18:16:21.059Z,98173.81
2022-11-16T18:18:48.706Z,98168.56
2022-11-16T18:21:20.730Z,98168.13
2022-11-16T18:23:48.093Z,98169.59
2022-11-16T18:26:16.655Z,98162.88
2022-11-16T18:28:49.119Z,98156.53
2022-11-16T18:31:18.458Z,98158.38
2022-11-16T18:33:45.247Z,98161.00
2022-11-16T18:36:12.641Z,98155.72
2022-11-16T18:38:39.475Z,98153.91
2022-11-16T18:41:12.019Z,98169.69
2022-11-16T18:43:48.360Z,98166.31
2022-11-16T18:46:15.299Z,98162.16
2022-11-16T18:48:43.348Z,98168.75
2022-11-16T18:51:11.164Z,98170.09
2022-11-16T18:53:38.338Z,98178.34
2022-11-16T18:56:05.721Z,98169.38
2022-11-16T19:01:23.930Z,98168.66
2022-11-16T19:03:51.833Z,98172.09
2022-11-16T19:06:19.097Z,98170.22
2022-11-16T19:08:53.767Z,98175.53
2022-11-16T19:11:23.759Z,98178.19
2022-11-16T19:14:03.835Z,98170.66
2022-11-16T19:16:31.018Z,98166.94
2022-11-16T19:18:57.642Z,98162.44
2022-11-16T19:21:24.584Z,98162.78
2022-11-16T19:23:53.677Z,98165.41
2022-11-16T19:26:22.517Z,98161.22
2022-11-16T19:28:50.175Z,98154.44
2022-11-16T19:31:22.340Z,98148.03
2022-11-16T19:33:53.988Z,98156.72
2022-11-16T19:36:20.990Z,98163.16
2022-11-16T19:38:48.489Z,98147.75
2022-11-16T19:41:16.145Z,98153.72
2022-11-16T19:43:42.929Z,98143.22
2022-11-16T19:46:17.429Z,98139.44
2022-11-16T19:48:45.828Z,98132.34
2022-11-16T19:51:17.602Z,98132.72
2022-11-16T19:53:44.495Z,98137.63
2022-11-16T19:56:13.454Z,98145.50
2022-11-16T19:58:40.689Z,98146.56
2022-11-16T20:01:10.985Z,98147.59
2022-11-16T20:03:41.780Z,98142.31
2022-11-16T20:06:10.988Z,98147.59
2022-11-16T20:08:40.425Z,98148.28
2022-11-16T20:11:12.389Z,98152.00
2022-11-16T20:13:39.064Z,98153.44
2022-11-16T20:16:07.444Z,98155.72
2022-11-16T20:18:34.191Z,98156.53
2022-11-16T20:21:05.356Z,98148.28
2022-11-16T20:23:36.076Z,98149.06
2022-11-16T20:26:07.349Z,98149.97
2022-11-16T20:28:38.536Z,98147.75
2022-11-16T20:31:11.295Z,98144.41
2022-11-16T20:33:38.315Z,98157.97
2022-11-16T20:36:10.449Z,98155.81
2022-11-16T20:38:38.412Z,98151.38
2022-11-16T20:41:13.033Z,98146.56
2022-11-16T20:43:40.258Z,98140.16
2022-11-16T20:46:08.843Z,98134.91
2022-11-16T20:48:36.322Z,98124.41
2022-11-16T20:51:03.365Z,98124.41
2022-11-16T20:53:30.210Z,98122.22
2022-11-16T20:55:57.581Z,98128.19
2022-11-16T20:58:24.871Z,98128.47
2022-11-16T21:00:51.626Z,98144.41
2022-11-16T21:03:18.317Z,98140.78
2022-11-16T21:05:46.215Z,98140.41
2022-11-16T21:08:12.942Z,98145.00
2022-11-16T21:10:39.883Z,98142.03
2022-11-16T21:13:26.154Z,98133.81
2022-11-16T21:16:01.228Z,98126.75
2022-11-16T21:18:30.909Z,98123.75
2022-11-16T21:21:01.745Z,98134.69
2022-11-16T21:23:29.955Z,98130.19
2022-11-16T21:26:08.613Z,98129.47
2022-11-16T21:28:35.217Z,98129.88
2022-11-16T21:31:04.409Z,98128.00
2022-11-16T21:33:31.800Z,98118.97
2022-11-16T21:36:06.237Z,98114.13
2022-11-16T21:38:34.051Z,98107.00
2022-11-16T21:41:01.179Z,98095.75
2022-11-16T21:43:28.340Z,98097.59
2022-11-16T21:46:01.371Z,98088.59
2022-11-16T21:48:28.086Z,98088.19
2022-11-16T21:51:09.356Z,98087.06
2022-11-16T21:53:36.518Z,98080.72
2022-11-16T21:56:04.483Z,98082.19
2022-11-16T21:58:31.390Z,98079.59
2022-11-16T22:00:59.872Z,98076.97
2022-11-16T22:03:28.787Z,98069.09
2022-11-16T22:06:15.731Z,98069.41
2022-11-16T22:08:42.609Z,98063.34
2022-11-16T22:11:09.769Z,98073.13
2022-11-16T22:13:37.587Z,98076.91
2022-11-16T22:16:09.142Z,98084.75
2022-11-16T22:18:36.133Z,98088.84
2022-11-16T22:21:03.103Z,98083.97
2022-11-16T22:23:30.066Z,98088.06
2022-11-16T22:26:06.494Z,98082.81
2022-11-16T22:28:34.853Z,98077.56
2022-11-16T22:31:09.836Z,98091.13
2022-11-16T22:33:37.162Z,98109.06
2022-11-16T22:36:04.844Z,98113.22
2022-11-16T22:38:31.511Z,98114.63
2022-11-16T22:40:58.207Z,98114.22
2022-11-16T22:43:26.977Z,98112.00
2022-11-16T22:46:01.014Z,98102.28
2022-11-16T22:48:31.439Z,98105.25
2022-11-16T22:51:23.242Z,98092.06
2022-11-16T22:53:54.326Z,98086.06
2022-11-16T22:56:21.354Z,98088.69
2022-11-16T22:58:47.987Z,98081.13
2022-11-16T23:01:14.671Z,98092.38
2022-11-16T23:03:41.537Z,98086.78
2022-11-16T23:06:08.471Z,98087.88
2022-11-16T23:08:35.643Z,98087.16
2022-11-16T23:11:22.678Z,98094.69
2022-11-16T23:14:08.483Z,98092.84
2022-11-16T23:16:35.355Z,98080.72
2022-11-16T23:19:02.130Z,98090.16
2022-11-16T23:21:47.420Z,98084.56
2022-11-16T23:24:33.756Z,98082.34
2022-11-16T23:27:22.369Z,98083.44
2022-11-16T23:29:49.367Z,98086.47
2022-11-16T23:32:16.069Z,98085.25
2022-11-16T23:34:42.702Z,98077.38
2022-11-16T23:37:09.413Z,98084.09
2022-11-16T23:39:36.090Z,98096.47
2022-11-16T23:42:21.427Z,98099.84
2022-11-16T23:44:48.150Z,98095.38
2022-11-16T23:47:14.870Z,98088.66
2022-11-16T23:49:41.763Z,98082.69
2022-11-16T23:52:08.417Z,98089.41
2022-11-16T23:54:35.111Z,98088.59
2022-11-16T23:57:01.782Z,98091.22
2022-11-16T23:59:28.429Z,98086.69
